sensor_id;sensor_type;location;lat;lon;timestamp;P1;durP1;ratioP1;P2;durP2;ratioP2
18503;SDS011;9381;54.244;10.074;2023-08-07T00:04:28;3.92;;;2.38;;
18503;SDS011;9381;54.244;10.074;2023-08-07T00:09:28;4.80;;;2.05;;
18503;SDS011;9381;54.244;10.074;2023-08-07T00:14:28;3.33;;;2.40;;
18503;SDS011;9381;54.244;10.074;2023-08-07T00:19:30;2.53;;;1.90;;
18503;SDS011;9381;54.244;10.074;2023-08-07T00:24:31;3.28;;;2.00;;
18503;SDS011;9381;54.244;10.074;2023-08-07T00:29:31;2.77;;;2.07;;
18503;SDS011;9381;54.244;10.074;2023-08-07T00:34:32;3.90;;;2.00;;
18503;SDS011;9381;54.244;10.074;2023-08-07T00:39:33;3.43;;;2.20;;
18503;SDS011;9381;54.244;10.074;2023-08-07T00:44:33;3.38;;;2.22;;
18503;SDS011;9381;54.244;10.074;2023-08-07T00:49:33;3.22;;;2.30;;
18503;SDS011;9381;54.244;10.074;2023-08-07T00:54:34;4.77;;;2.30;;
18503;SDS011;9381;54.244;10.074;2023-08-07T00:59:35;4.23;;;2.57;;
18503;SDS011;9381;54.244;10.074;2023-08-07T01:04:35;2.63;;;2.20;;
18503;SDS011;9381;54.244;10.074;2023-08-07T01:09:35;3.27;;;2.27;;
18503;SDS011;9381;54.244;10.074;2023-08-07T01:19:58;4.13;;;2.40;;
18503;SDS011;9381;54.244;10.074;2023-08-07T01:24:59;2.30;;;2.10;;
18503;SDS011;9381;54.244;10.074;2023-08-07T01:35:12;2.73;;;2.30;;
18503;SDS011;9381;54.244;10.074;2023-08-07T01:40:15;3.07;;;1.93;;
18503;SDS011;9381;54.244;10.074;2023-08-07T01:45:23;4.33;;;2.00;;
18503;SDS011;9381;54.244;10.074;2023-08-07T01:50:25;3.90;;;1.90;;
18503;SDS011;9381;54.244;10.074;2023-08-07T01:55:25;4.10;;;2.30;;
18503;SDS011;9381;54.244;10.074;2023-08-07T02:00:26;7.67;;;2.60;;
18503;SDS011;9381;54.244;10.074;2023-08-07T02:05:26;4.33;;;2.50;;
18503;SDS011;9381;54.244;10.074;2023-08-07T02:10:26;3.20;;;2.35;;
18503;SDS011;9381;54.244;10.074;2023-08-07T02:15:28;4.13;;;2.30;;
18503;SDS011;9381;54.244;10.074;2023-08-07T02:20:28;3.77;;;2.20;;
18503;SDS011;9381;54.244;10.074;2023-08-07T02:25:28;3.60;;;2.40;;
18503;SDS011;9381;54.244;10.074;2023-08-07T02:30:30;5.68;;;2.58;;
18503;SDS011;9381;54.244;10.074;2023-08-07T02:35:31;6.77;;;2.87;;
18503;SDS011;9381;54.244;10.074;2023-08-07T02:40:31;5.27;;;2.90;;
18503;SDS011;9381;54.244;10.074;2023-08-07T02:45:31;4.45;;;2.53;;
18503;SDS011;9381;54.244;10.074;2023-08-07T02:50:35;5.13;;;2.87;;
18503;SDS011;9381;54.244;10.074;2023-08-07T02:55:35;7.43;;;2.97;;
18503;SDS011;9381;54.244;10.074;2023-08-07T03:00:35;6.85;;;2.95;;
18503;SDS011;9381;54.244;10.074;2023-08-07T03:05:36;4.53;;;2.60;;
18503;SDS011;9381;54.244;10.074;2023-08-07T03:10:36;6.63;;;3.27;;
18503;SDS011;9381;54.244;10.074;2023-08-07T03:15:37;5.30;;;2.67;;
18503;SDS011;9381;54.244;10.074;2023-08-07T03:20:37;5.75;;;2.60;;
18503;SDS011;9381;54.244;10.074;2023-08-07T03:25:37;7.65;;;3.33;;
18503;SDS011;9381;54.244;10.074;2023-08-07T03:30:38;5.70;;;3.00;;
18503;SDS011;9381;54.244;10.074;2023-08-07T03:35:38;5.23;;;3.20;;
18503;SDS011;9381;54.244;10.074;2023-08-07T03:40:38;6.23;;;3.37;;
18503;SDS011;9381;54.244;10.074;2023-08-07T03:45:39;7.85;;;3.30;;
18503;SDS011;9381;54.244;10.074;2023-08-07T03:50:40;7.07;;;2.77;;
18503;SDS011;9381;54.244;10.074;2023-08-07T03:55:40;6.32;;;2.95;;
18503;SDS011;9381;54.244;10.074;2023-08-07T04:00:41;6.97;;;3.20;;
18503;SDS011;9381;54.244;10.074;2023-08-07T04:05:42;7.18;;;2.92;;
18503;SDS011;9381;54.244;10.074;2023-08-07T04:10:42;7.78;;;2.75;;
18503;SDS011;9381;54.244;10.074;2023-08-07T04:15:42;5.40;;;2.53;;
18503;SDS011;9381;54.244;10.074;2023-08-07T04:20:48;8.07;;;2.83;;
18503;SDS011;9381;54.244;10.074;2023-08-07T04:25:49;8.73;;;3.50;;
18503;SDS011;9381;54.244;10.074;2023-08-07T04:30:50;6.63;;;2.73;;
18503;SDS011;9381;54.244;10.074;2023-08-07T04:35:51;7.37;;;3.37;;
18503;SDS011;9381;54.244;10.074;2023-08-07T04:40:51;11.75;;;3.17;;
18503;SDS011;9381;54.244;10.074;2023-08-07T04:45:52;7.73;;;3.07;;
18503;SDS011;9381;54.244;10.074;2023-08-07T04:50:53;8.37;;;2.80;;
18503;SDS011;9381;54.244;10.074;2023-08-07T04:55:53;6.47;;;3.53;;
18503;SDS011;9381;54.244;10.074;2023-08-07T05:00:57;6.70;;;2.97;;
18503;SDS011;9381;54.244;10.074;2023-08-07T05:05:58;7.63;;;3.03;;
18503;SDS011;9381;54.244;10.074;2023-08-07T05:10:59;10.43;;;3.00;;
18503;SDS011;9381;54.244;10.074;2023-08-07T05:16:00;8.60;;;3.20;;
18503;SDS011;9381;54.244;10.074;2023-08-07T05:21:00;9.95;;;3.55;;
18503;SDS011;9381;54.244;10.074;2023-08-07T05:26:00;11.07;;;3.60;;
18503;SDS011;9381;54.244;10.074;2023-08-07T05:31:01;13.10;;;3.83;;
18503;SDS011;9381;54.244;10.074;2023-08-07T05:36:02;14.75;;;4.05;;
18503;SDS011;9381;54.244;10.074;2023-08-07T05:41:02;14.77;;;4.27;;
18503;SDS011;9381;54.244;10.074;2023-08-07T05:46:03;15.13;;;4.37;;
18503;SDS011;9381;54.244;10.074;2023-08-07T05:51:03;12.53;;;3.80;;
18503;SDS011;9381;54.244;10.074;2023-08-07T05:56:03;12.53;;;3.70;;
18503;SDS011;9381;54.244;10.074;2023-08-07T06:01:04;18.15;;;4.40;;
18503;SDS011;9381;54.244;10.074;2023-08-07T06:06:05;11.53;;;3.70;;
18503;SDS011;9381;54.244;10.074;2023-08-07T06:11:05;10.63;;;3.80;;
18503;SDS011;9381;54.244;10.074;2023-08-07T06:16:08;11.73;;;4.07;;
18503;SDS011;9381;54.244;10.074;2023-08-07T06:21:08;20.50;;;4.83;;
18503;SDS011;9381;54.244;10.074;2023-08-07T06:26:10;15.30;;;4.33;;
18503;SDS011;9381;54.244;10.074;2023-08-07T06:31:11;14.35;;;4.38;;
18503;SDS011;9381;54.244;10.074;2023-08-07T06:36:12;15.97;;;4.50;;
18503;SDS011;9381;54.244;10.074;2023-08-07T06:41:13;17.93;;;4.20;;
18503;SDS011;9381;54.244;10.074;2023-08-07T06:46:13;12.47;;;4.00;;
18503;SDS011;9381;54.244;10.074;2023-08-07T06:51:13;17.55;;;4.72;;
18503;SDS011;9381;54.244;10.074;2023-08-07T06:56:15;18.53;;;5.00;;
18503;SDS011;9381;54.244;10.074;2023-08-07T07:01:15;17.98;;;4.10;;
18503;SDS011;9381;54.244;10.074;2023-08-07T07:06:15;17.20;;;4.57;;
18503;SDS011;9381;54.244;10.074;2023-08-07T07:11:16;13.23;;;4.53;;
18503;SDS011;9381;54.244;10.074;2023-08-07T07:16:19;12.68;;;4.15;;
18503;SDS011;9381;54.244;10.074;2023-08-07T07:21:21;19.60;;;5.20;;
18503;SDS011;9381;54.244;10.074;2023-08-07T07:26:21;16.33;;;4.37;;
18503;SDS011;9381;54.244;10.074;2023-08-07T07:31:22;20.80;;;4.38;;
18503;SDS011;9381;54.244;10.074;2023-08-07T07:36:22;15.70;;;4.63;;
18503;SDS011;9381;54.244;10.074;2023-08-07T07:41:22;22.20;;;5.00;;
18503;SDS011;9381;54.244;10.074;2023-08-07T07:46:23;14.20;;;4.60;;
18503;SDS011;9381;54.244;10.074;2023-08-07T07:51:24;18.67;;;4.60;;
18503;SDS011;9381;54.244;10.074;2023-08-07T07:56:25;19.30;;;4.70;;
18503;SDS011;9381;54.244;10.074;2023-08-07T08:01:25;17.45;;;5.07;;
18503;SDS011;9381;54.244;10.074;2023-08-07T08:06:25;13.90;;;4.00;;
18503;SDS011;9381;54.244;10.074;2023-08-07T08:11:25;16.65;;;4.78;;
18503;SDS011;9381;54.244;10.074;2023-08-07T08:16:26;16.23;;;5.05;;
18503;SDS011;9381;54.244;10.074;2023-08-07T08:21:26;16.80;;;4.60;;
18503;SDS011;9381;54.244;10.074;2023-08-07T08:26:26;18.55;;;4.70;;
18503;SDS011;9381;54.244;10.074;2023-08-07T08:31:27;14.73;;;4.70;;
18503;SDS011;9381;54.244;10.074;2023-08-07T08:36:27;14.87;;;4.13;;
18503;SDS011;9381;54.244;10.074;2023-08-07T08:41:28;19.70;;;4.38;;
18503;SDS011;9381;54.244;10.074;2023-08-07T08:46:29;15.97;;;4.87;;
18503;SDS011;9381;54.244;10.074;2023-08-07T08:51:31;19.03;;;5.07;;
18503;SDS011;9381;54.244;10.074;2023-08-07T08:56:32;16.70;;;4.67;;
18503;SDS011;9381;54.244;10.074;2023-08-07T09:01:33;19.40;;;4.00;;
18503;SDS011;9381;54.244;10.074;2023-08-07T09:06:34;12.53;;;4.07;;
18503;SDS011;9381;54.244;10.074;2023-08-07T09:11:34;20.93;;;5.20;;
18503;SDS011;9381;54.244;10.074;2023-08-07T09:16:36;13.57;;;4.40;;
18503;SDS011;9381;54.244;10.074;2023-08-07T09:21:36;11.73;;;4.27;;
18503;SDS011;9381;54.244;10.074;2023-08-07T09:26:38;12.70;;;4.23;;
18503;SDS011;9381;54.244;10.074;2023-08-07T09:31:43;14.07;;;4.60;;
18503;SDS011;9381;54.244;10.074;2023-08-07T09:36:45;14.57;;;4.53;;
18503;SDS011;9381;54.244;10.074;2023-08-07T09:41:45;14.48;;;4.45;;
18503;SDS011;9381;54.244;10.074;2023-08-07T09:46:52;12.13;;;4.93;;
18503;SDS011;9381;54.244;10.074;2023-08-07T09:51:52;11.00;;;4.53;;
18503;SDS011;9381;54.244;10.074;2023-08-07T09:56:54;14.98;;;4.25;;
18503;SDS011;9381;54.244;10.074;2023-08-07T10:01:55;13.87;;;3.63;;
18503;SDS011;9381;54.244;10.074;2023-08-07T10:06:56;11.93;;;3.37;;
18503;SDS011;9381;54.244;10.074;2023-08-07T10:11:56;15.27;;;4.13;;
18503;SDS011;9381;54.244;10.074;2023-08-07T10:16:58;13.37;;;4.37;;
18503;SDS011;9381;54.244;10.074;2023-08-07T10:21:58;16.17;;;4.40;;
18503;SDS011;9381;54.244;10.074;2023-08-07T10:26:59;12.70;;;3.80;;
18503;SDS011;9381;54.244;10.074;2023-08-07T10:32:00;17.17;;;4.33;;
18503;SDS011;9381;54.244;10.074;2023-08-07T10:37:05;13.73;;;4.37;;
18503;SDS011;9381;54.244;10.074;2023-08-07T10:42:06;11.87;;;3.23;;
18503;SDS011;9381;54.244;10.074;2023-08-07T10:47:07;15.70;;;4.07;;
18503;SDS011;9381;54.244;10.074;2023-08-07T10:52:07;15.23;;;3.00;;
18503;SDS011;9381;54.244;10.074;2023-08-07T10:57:11;12.17;;;2.87;;
18503;SDS011;9381;54.244;10.074;2023-08-07T11:02:21;8.37;;;2.67;;
18503;SDS011;9381;54.244;10.074;2023-08-07T11:07:25;7.57;;;2.40;;
18503;SDS011;9381;54.244;10.074;2023-08-07T11:12:27;7.87;;;2.77;;
18503;SDS011;9381;54.244;10.074;2023-08-07T11:17:29;6.77;;;2.03;;
18503;SDS011;9381;54.244;10.074;2023-08-07T11:22:29;8.07;;;3.28;;
18503;SDS011;9381;54.244;10.074;2023-08-07T11:27:30;13.23;;;3.33;;
18503;SDS011;9381;54.244;10.074;2023-08-07T11:32:30;17.23;;;3.45;;
18503;SDS011;9381;54.244;10.074;2023-08-07T11:37:31;11.23;;;3.60;;
18503;SDS011;9381;54.244;10.074;2023-08-07T11:42:31;13.48;;;3.38;;
18503;SDS011;9381;54.244;10.074;2023-08-07T11:47:31;19.05;;;3.40;;
18503;SDS011;9381;54.244;10.074;2023-08-07T11:52:32;12.13;;;3.60;;
18503;SDS011;9381;54.244;10.074;2023-08-07T11:57:33;13.33;;;3.43;;
18503;SDS011;9381;54.244;10.074;2023-08-07T12:02:35;8.40;;;3.35;;
18503;SDS011;9381;54.244;10.074;2023-08-07T12:07:35;10.70;;;3.10;;
18503;SDS011;9381;54.244;10.074;2023-08-07T12:12:36;16.50;;;3.60;;
18503;SDS011;9381;54.244;10.074;2023-08-07T12:17:37;10.43;;;2.80;;
18503;SDS011;9381;54.244;10.074;2023-08-07T12:22:37;12.15;;;3.30;;
18503;SDS011;9381;54.244;10.074;2023-08-07T12:27:37;13.20;;;2.60;;
18503;SDS011;9381;54.244;10.074;2023-08-07T12:32:38;11.05;;;3.17;;
18503;SDS011;9381;54.244;10.074;2023-08-07T12:37:38;11.87;;;2.73;;
18503;SDS011;9381;54.244;10.074;2023-08-07T12:42:38;10.35;;;2.75;;
18503;SDS011;9381;54.244;10.074;2023-08-07T12:47:39;14.23;;;3.70;;
18503;SDS011;9381;54.244;10.074;2023-08-07T12:52:39;13.10;;;3.30;;
18503;SDS011;9381;54.244;10.074;2023-08-07T12:57:40;10.20;;;3.58;;
18503;SDS011;9381;54.244;10.074;2023-08-07T13:02:43;16.13;;;4.03;;
18503;SDS011;9381;54.244;10.074;2023-08-07T13:07:45;16.43;;;3.80;;
18503;SDS011;9381;54.244;10.074;2023-08-07T13:12:47;19.50;;;4.20;;
18503;SDS011;9381;54.244;10.074;2023-08-07T13:17:49;12.83;;;4.47;;
18503;SDS011;9381;54.244;10.074;2023-08-07T13:22:49;20.08;;;4.70;;
18503;SDS011;9381;54.244;10.074;2023-08-07T13:27:49;17.17;;;4.70;;
18503;SDS011;9381;54.244;10.074;2023-08-07T13:32:50;14.60;;;4.07;;
18503;SDS011;9381;54.244;10.074;2023-08-07T13:37:50;12.20;;;4.23;;
18503;SDS011;9381;54.244;10.074;2023-08-07T13:42:50;19.95;;;4.28;;
18503;SDS011;9381;54.244;10.074;2023-08-07T13:47:51;15.80;;;4.33;;
18503;SDS011;9381;54.244;10.074;2023-08-07T13:52:51;15.57;;;4.57;;
18503;SDS011;9381;54.244;10.074;2023-08-07T13:57:51;16.27;;;4.75;;
18503;SDS011;9381;54.244;10.074;2023-08-07T14:02:52;14.43;;;4.55;;
18503;SDS011;9381;54.244;10.074;2023-08-07T14:07:52;20.10;;;4.47;;
18503;SDS011;9381;54.244;10.074;2023-08-07T14:12:53;16.13;;;4.20;;
18503;SDS011;9381;54.244;10.074;2023-08-07T14:17:53;13.35;;;4.32;;
18503;SDS011;9381;54.244;10.074;2023-08-07T14:22:53;13.20;;;3.55;;
18503;SDS011;9381;54.244;10.074;2023-08-07T14:27:54;13.77;;;3.67;;
18503;SDS011;9381;54.244;10.074;2023-08-07T14:32:54;12.87;;;3.13;;
18503;SDS011;9381;54.244;10.074;2023-08-07T14:37:55;18.65;;;3.83;;
18503;SDS011;9381;54.244;10.074;2023-08-07T14:42:55;8.20;;;3.43;;
18503;SDS011;9381;54.244;10.074;2023-08-07T14:47:56;11.27;;;3.50;;
18503;SDS011;9381;54.244;10.074;2023-08-07T14:52:56;13.00;;;4.27;;
18503;SDS011;9381;54.244;10.074;2023-08-07T14:57:56;12.18;;;4.43;;
18503;SDS011;9381;54.244;10.074;2023-08-07T15:02:57;12.88;;;4.07;;
18503;SDS011;9381;54.244;10.074;2023-08-07T15:08:00;14.47;;;4.30;;
18503;SDS011;9381;54.244;10.074;2023-08-07T15:13:01;17.27;;;4.23;;
18503;SDS011;9381;54.244;10.074;2023-08-07T15:18:01;17.60;;;4.20;;
18503;SDS011;9381;54.244;10.074;2023-08-07T15:23:03;16.50;;;4.03;;
18503;SDS011;9381;54.244;10.074;2023-08-07T15:28:04;12.43;;;3.60;;
18503;SDS011;9381;54.244;10.074;2023-08-07T15:33:05;12.63;;;3.50;;
18503;SDS011;9381;54.244;10.074;2023-08-07T15:38:06;14.35;;;3.55;;
18503;SDS011;9381;54.244;10.074;2023-08-07T15:43:09;12.40;;;3.27;;
18503;SDS011;9381;54.244;10.074;2023-08-07T15:48:09;10.93;;;3.60;;
18503;SDS011;9381;54.244;10.074;2023-08-07T15:53:10;13.10;;;3.60;;
18503;SDS011;9381;54.244;10.074;2023-08-07T15:58:10;18.07;;;3.97;;
18503;SDS011;9381;54.244;10.074;2023-08-07T16:03:11;19.07;;;3.73;;
18503;SDS011;9381;54.244;10.074;2023-08-07T16:08:11;18.15;;;4.60;;
18503;SDS011;9381;54.244;10.074;2023-08-07T16:13:11;14.93;;;4.80;;
18503;SDS011;9381;54.244;10.074;2023-08-07T16:18:13;19.87;;;5.27;;
18503;SDS011;9381;54.244;10.074;2023-08-07T16:23:14;16.90;;;4.50;;
18503;SDS011;9381;54.244;10.074;2023-08-07T16:28:14;18.47;;;4.13;;
18503;SDS011;9381;54.244;10.074;2023-08-07T16:33:14;23.93;;;3.70;;
18503;SDS011;9381;54.244;10.074;2023-08-07T16:38:15;18.63;;;4.30;;
18503;SDS011;9381;54.244;10.074;2023-08-07T16:43:15;16.67;;;4.37;;
18503;SDS011;9381;54.244;10.074;2023-08-07T16:48:15;17.57;;;3.60;;
18503;SDS011;9381;54.244;10.074;2023-08-07T16:53:16;16.27;;;4.07;;
18503;SDS011;9381;54.244;10.074;2023-08-07T16:58:17;17.70;;;3.87;;
18503;SDS011;9381;54.244;10.074;2023-08-07T17:03:17;10.50;;;3.47;;
18503;SDS011;9381;54.244;10.074;2023-08-07T17:08:17;16.55;;;4.05;;
18503;SDS011;9381;54.244;10.074;2023-08-07T17:13:17;14.48;;;4.38;;
18503;SDS011;9381;54.244;10.074;2023-08-07T17:18:18;12.07;;;4.00;;
18503;SDS011;9381;54.244;10.074;2023-08-07T17:23:18;14.27;;;3.53;;
18503;SDS011;9381;54.244;10.074;2023-08-07T17:28:18;13.83;;;3.83;;
18503;SDS011;9381;54.244;10.074;2023-08-07T17:33:19;9.88;;;3.53;;
18503;SDS011;9381;54.244;10.074;2023-08-07T17:38:19;16.97;;;4.83;;
18503;SDS011;9381;54.244;10.074;2023-08-07T17:43:20;18.00;;;4.53;;
18503;SDS011;9381;54.244;10.074;2023-08-07T17:48:20;14.80;;;4.50;;
18503;SDS011;9381;54.244;10.074;2023-08-07T17:53:20;16.63;;;4.55;;
18503;SDS011;9381;54.244;10.074;2023-08-07T17:58:21;13.40;;;4.30;;
18503;SDS011;9381;54.244;10.074;2023-08-07T18:03:21;17.07;;;4.53;;
18503;SDS011;9381;54.244;10.074;2023-08-07T18:08:22;17.65;;;4.72;;
18503;SDS011;9381;54.244;10.074;2023-08-07T18:13:22;15.93;;;4.93;;
18503;SDS011;9381;54.244;10.074;2023-08-07T18:18:23;20.23;;;4.97;;
18503;SDS011;9381;54.244;10.074;2023-08-07T18:23:23;23.60;;;6.23;;
18503;SDS011;9381;54.244;10.074;2023-08-07T18:28:23;16.43;;;5.20;;
18503;SDS011;9381;54.244;10.074;2023-08-07T18:33:24;18.77;;;5.87;;
18503;SDS011;9381;54.244;10.074;2023-08-07T18:38:24;28.87;;;5.50;;
18503;SDS011;9381;54.244;10.074;2023-08-07T18:43:25;23.07;;;5.33;;
18503;SDS011;9381;54.244;10.074;2023-08-07T18:48:25;21.40;;;5.13;;
18503;SDS011;9381;54.244;10.074;2023-08-07T18:53:25;17.53;;;4.93;;
18503;SDS011;9381;54.244;10.074;2023-08-07T18:58:26;23.57;;;5.93;;
18503;SDS011;9381;54.244;10.074;2023-08-07T19:03:26;11.80;;;4.82;;
18503;SDS011;9381;54.244;10.074;2023-08-07T19:08:26;20.05;;;4.60;;
18503;SDS011;9381;54.244;10.074;2023-08-07T19:13:26;16.92;;;4.22;;
18503;SDS011;9381;54.244;10.074;2023-08-07T19:18:27;11.80;;;4.20;;
18503;SDS011;9381;54.244;10.074;2023-08-07T19:23:28;12.97;;;4.67;;
18503;SDS011;9381;54.244;10.074;2023-08-07T19:28:32;18.67;;;4.53;;
18503;SDS011;9381;54.244;10.074;2023-08-07T19:33:32;17.23;;;4.50;;
18503;SDS011;9381;54.244;10.074;2023-08-07T19:38:33;12.00;;;3.67;;
18503;SDS011;9381;54.244;10.074;2023-08-07T19:43:33;13.77;;;3.80;;
18503;SDS011;9381;54.244;10.074;2023-08-07T19:48:34;16.08;;;4.07;;
18503;SDS011;9381;54.244;10.074;2023-08-07T19:53:34;13.67;;;4.03;;
18503;SDS011;9381;54.244;10.074;2023-08-07T19:58:34;13.10;;;4.25;;
18503;SDS011;9381;54.244;10.074;2023-08-07T20:03:35;16.63;;;4.10;;
18503;SDS011;9381;54.244;10.074;2023-08-07T20:08:35;11.43;;;3.90;;
18503;SDS011;9381;54.244;10.074;2023-08-07T20:13:36;13.53;;;4.30;;
18503;SDS011;9381;54.244;10.074;2023-08-07T20:18:36;16.23;;;4.87;;
18503;SDS011;9381;54.244;10.074;2023-08-07T20:23:36;12.23;;;4.07;;
18503;SDS011;9381;54.244;10.074;2023-08-07T20:28:36;15.30;;;4.13;;
18503;SDS011;9381;54.244;10.074;2023-08-07T20:33:37;14.75;;;4.10;;
18503;SDS011;9381;54.244;10.074;2023-08-07T20:38:38;15.33;;;4.03;;
18503;SDS011;9381;54.244;10.074;2023-08-07T20:43:38;12.65;;;3.88;;
18503;SDS011;9381;54.244;10.074;2023-08-07T20:48:38;14.32;;;3.67;;
18503;SDS011;9381;54.244;10.074;2023-08-07T20:53:38;15.30;;;3.75;;
18503;SDS011;9381;54.244;10.074;2023-08-07T20:58:39;17.73;;;3.87;;
18503;SDS011;9381;54.244;10.074;2023-08-07T21:03:39;15.83;;;4.93;;
18503;SDS011;9381;54.244;10.074;2023-08-07T21:08:39;16.23;;;4.40;;
18503;SDS011;9381;54.244;10.074;2023-08-07T21:14:05;13.03;;;3.67;;
18503;SDS011;9381;54.244;10.074;2023-08-07T21:19:05;17.55;;;4.40;;
18503;SDS011;9381;54.244;10.074;2023-08-07T21:24:06;20.27;;;4.50;;
18503;SDS011;9381;54.244;10.074;2023-08-07T21:29:11;14.37;;;3.70;;
18503;SDS011;9381;54.244;10.074;2023-08-07T21:34:11;14.18;;;4.18;;
18503;SDS011;9381;54.244;10.074;2023-08-07T21:39:12;17.17;;;4.23;;
18503;SDS011;9381;54.244;10.074;2023-08-07T21:44:12;13.83;;;3.90;;
18503;SDS011;9381;54.244;10.074;2023-08-07T21:49:12;12.47;;;4.03;;
18503;SDS011;9381;54.244;10.074;2023-08-07T21:54:13;19.75;;;4.50;;
18503;SDS011;9381;54.244;10.074;2023-08-07T21:59:13;18.43;;;4.23;;
18503;SDS011;9381;54.244;10.074;2023-08-07T22:04:13;18.90;;;4.57;;
18503;SDS011;9381;54.244;10.074;2023-08-07T22:09:13;16.27;;;4.18;;
18503;SDS011;9381;54.244;10.074;2023-08-07T22:14:14;14.63;;;4.40;;
18503;SDS011;9381;54.244;10.074;2023-08-07T22:19:14;12.45;;;3.85;;
18503;SDS011;9381;54.244;10.074;2023-08-07T22:24:14;15.23;;;3.63;;
18503;SDS011;9381;54.244;10.074;2023-08-07T22:29:14;19.70;;;4.20;;
18503;SDS011;9381;54.244;10.074;2023-08-07T22:34:15;17.77;;;4.37;;
18503;SDS011;9381;54.244;10.074;2023-08-07T22:39:15;12.13;;;3.95;;
18503;SDS011;9381;54.244;10.074;2023-08-07T22:44:16;14.87;;;4.43;;
18503;SDS011;9381;54.244;10.074;2023-08-07T22:49:16;15.13;;;3.70;;
18503;SDS011;9381;54.244;10.074;2023-08-07T22:54:19;17.63;;;4.20;;
18503;SDS011;9381;54.244;10.074;2023-08-07T22:59:19;18.80;;;4.40;;
18503;SDS011;9381;54.244;10.074;2023-08-07T23:04:20;14.32;;;3.35;;
18503;SDS011;9381;54.244;10.074;2023-08-07T23:09:20;13.93;;;3.85;;
18503;SDS011;9381;54.244;10.074;2023-08-07T23:14:21;14.77;;;3.77;;
18503;SDS011;9381;54.244;10.074;2023-08-07T23:19:21;17.80;;;3.97;;
18503;SDS011;9381;54.244;10.074;2023-08-07T23:24:22;16.03;;;3.20;;
18503;SDS011;9381;54.244;10.074;2023-08-07T23:29:22;13.10;;;3.33;;
18503;SDS011;9381;54.244;10.074;2023-08-07T23:34:22;10.50;;;3.60;;
18503;SDS011;9381;54.244;10.074;2023-08-07T23:39:22;14.15;;;3.83;;
18503;SDS011;9381;54.244;10.074;2023-08-07T23:44:23;14.43;;;3.80;;
18503;SDS011;9381;54.244;10.074;2023-08-07T23:49:23;13.68;;;3.45;;
18503;SDS011;9381;54.244;10.074;2023-08-07T23:54:23;13.30;;;3.20;;
18503;SDS011;9381;54.244;10.074;2023-08-07T23:59:24;13.70;;;3.80;;
